Time;durP1;ratioP1;P1;durP2;ratioP2;P2;SDS_P1;SDS_P2;PMS_P1;PMS_P2;Temp;Humidity;BMP_temperature;BMP_pressure;BME280_temperature;BME280_humidity;BME280_pressure;Samples;Min_cycle;Max_cycle;Signal;HPM_P1;HPM_P2
2022/04/14 00:01:52;;;;;;;8.95;3.22;;;16.10;94.50;;;;;;5023253;28;20564;-65
2022/04/14 00:04:18;;;;;;;9.68;3.70;;;16.10;94.30;;;;;;5013289;28;20123;-65
2022/04/14 00:06:43;;;;;;;8.10;3.80;;;16.10;94.30;;;;;;5032511;28;20025;-65
2022/04/14 00:09:09;;;;;;;10.25;4.00;;;16.00;94.40;;;;;;5019934;28;20461;-65
2022/04/14 00:11:35;;;;;;;9.30;3.83;;;16.00;94.30;;;;;;5030275;28;20032;-65
2022/04/14 00:14:01;;;;;;;9.07;3.63;;;16.00;94.30;;;;;;5029077;28;20128;-65
2022/04/14 00:16:26;;;;;;;8.00;4.03;;;15.90;94.30;;;;;;5032282;28;20037;-65
2022/04/14 00:18:53;;;;;;;9.70;4.20;;;15.90;94.30;;;;;;5032808;28;20484;-65
2022/04/14 00:21:19;;;;;;;10.95;4.68;;;15.90;94.30;;;;;;5032225;28;20420;-65
2022/04/14 00:23:48;;;;;;;11.00;4.78;;;15.80;94.30;;;;;;5032788;28;20033;-65
2022/04/14 00:26:14;;;;;;;8.57;4.45;;;15.80;94.30;;;;;;5032682;28;20492;-65
2022/04/14 00:28:40;;;;;;;8.60;4.28;;;15.80;94.20;;;;;;5031514;28;20037;-66
2022/04/14 00:31:05;;;;;;;9.70;4.43;;;15.80;94.30;;;;;;5031288;28;20037;-65
2022/04/14 00:33:32;;;;;;;10.23;5.00;;;15.80;94.30;;;;;;5032337;28;20075;-65
2022/04/14 00:36:00;;;;;;;11.05;4.47;;;15.70;94.30;;;;;;5015994;28;20021;-65
2022/04/14 00:38:26;;;;;;;13.50;3.58;;;15.70;94.30;;;;;;5013428;28;20029;-65
2022/04/14 00:40:52;;;;;;;6.75;3.85;;;15.70;94.30;;;;;;5022065;28;20500;-65
2022/04/14 00:43:20;;;;;;;9.98;4.47;;;15.60;94.60;;;;;;5013223;28;20072;-65
2022/04/14 00:45:49;;;;;;;15.60;5.28;;;15.50;94.20;;;;;;5023686;28;20087;-65
2022/04/14 00:48:15;;;;;;;10.00;5.32;;;15.50;94.30;;;;;;5019299;28;20033;-65
2022/04/14 00:50:41;;;;;;;13.27;6.32;;;15.50;94.30;;;;;;5031499;28;20026;-65
2022/04/14 00:53:06;;;;;;;13.98;6.32;;;15.50;94.30;;;;;;5015908;28;20057;-65
2022/04/14 00:55:32;;;;;;;12.13;5.93;;;15.50;94.40;;;;;;5012470;28;20049;-65
2022/04/14 00:57:58;;;;;;;12.38;5.28;;;15.50;94.40;;;;;;5027192;28;20033;-65
2022/04/14 01:00:24;;;;;;;19.35;5.28;;;15.40;94.40;;;;;;5031977;28;20088;-65
2022/04/14 01:02:49;;;;;;;11.30;5.00;;;15.40;94.40;;;;;;5031561;28;20073;-65
2022/04/14 01:05:15;;;;;;;17.65;6.55;;;15.40;94.40;;;;;;5027359;28;20040;-65
2022/04/14 01:07:44;;;;;;;10.90;5.40;;;15.40;94.40;;;;;;5031716;28;20030;-65
2022/04/14 01:10:10;;;;;;;14.73;5.40;;;15.40;94.40;;;;;;5031899;28;20762;-67
2022/04/14 01:12:36;;;;;;;10.82;5.43;;;15.40;94.40;;;;;;5030670;28;20038;-67
2022/04/14 01:15:02;;;;;;;11.52;5.75;;;15.30;94.50;;;;;;5031716;28;20030;-67
2022/04/14 01:17:27;;;;;;;15.95;5.95;;;15.30;94.50;;;;;;5031449;28;20022;-67
2022/04/14 01:19:53;;;;;;;13.30;6.10;;;15.30;94.50;;;;;;5031130;28;20034;-67
2022/04/14 01:22:23;;;;;;;14.35;5.97;;;15.30;94.50;;;;;;5031510;28;20037;-67
2022/04/14 01:24:50;;;;;;;10.80;6.25;;;15.30;94.50;;;;;;5030759;28;20061;-67
2022/04/14 01:27:16;;;;;;;13.00;5.85;;;15.20;94.40;;;;;;5031575;28;20473;-67
2022/04/14 01:29:41;;;;;;;9.32;4.65;;;15.20;94.40;;;;;;5024737;28;20080;-67
2022/04/14 01:32:08;;;;;;;14.73;6.25;;;15.20;94.50;;;;;;5011216;28;20033;-67
2022/04/14 01:34:34;;;;;;;13.00;6.38;;;15.10;94.40;;;;;;5011567;28;20044;-67
2022/04/14 01:37:00;;;;;;;12.55;6.53;;;15.20;94.40;;;;;;5012144;28;20026;-67
2022/04/14 01:39:29;;;;;;;12.40;6.45;;;15.10;94.40;;;;;;5030750;28;20032;-67
2022/04/14 01:41:55;;;;;;;12.85;6.75;;;15.10;94.40;;;;;;5017450;28;20037;-67
2022/04/14 01:44:21;;;;;;;12.07;7.10;;;15.00;94.40;;;;;;5011646;28;20112;-67
2022/04/14 01:46:47;;;;;;;10.80;6.03;;;15.10;94.40;;;;;;5024883;28;20124;-68
2022/04/14 01:49:13;;;;;;;13.77;6.75;;;15.10;94.50;;;;;;5031489;28;20040;-67
2022/04/14 01:51:39;;;;;;;11.82;6.43;;;15.00;94.50;;;;;;5018083;28;20033;-67
2022/04/14 01:54:05;;;;;;;11.95;6.43;;;15.00;94.50;;;;;;5030692;28;20064;-67
2022/04/14 01:56:33;;;;;;;13.50;6.60;;;15.00;94.50;;;;;;5031263;28;20022;-67
2022/04/14 01:59:00;;;;;;;14.13;6.63;;;14.90;94.40;;;;;;5021537;28;20034;-67
2022/04/14 02:01:26;;;;;;;15.93;8.15;;;14.90;94.50;;;;;;5010396;28;20057;-67
2022/04/14 02:03:52;;;;;;;16.08;7.40;;;14.80;94.40;;;;;;5020470;28;20029;-66
2022/04/14 02:06:18;;;;;;;15.98;7.93;;;14.80;94.40;;;;;;5030970;28;20021;-66
2022/04/14 02:08:47;;;;;;;14.55;7.85;;;14.80;94.50;;;;;;5026861;28;20059;-66
2022/04/14 02:11:12;;;;;;;15.50;7.68;;;14.80;94.50;;;;;;5029410;28;20033;-66
2022/04/14 02:13:39;;;;;;;19.10;8.63;;;14.80;94.50;;;;;;5025930;28;20041;-66
2022/04/14 02:16:04;;;;;;;19.02;8.82;;;14.70;94.50;;;;;;5010580;28;20038;-66
2022/04/14 02:18:30;;;;;;;15.20;8.23;;;14.80;94.50;;;;;;5023892;28;20034;-66
2022/04/14 02:20:56;;;;;;;14.38;8.10;;;14.70;94.50;;;;;;5029326;28;20030;-67
2022/04/14 02:23:24;;;;;;;17.92;8.82;;;14.70;94.50;;;;;;5017879;28;20512;-66
2022/04/14 02:25:50;;;;;;;13.90;7.28;;;14.60;94.40;;;;;;5029478;28;20034;-66
2022/04/14 02:28:16;;;;;;;18.58;9.32;;;14.60;94.50;;;;;;5028008;28;20068;-66
2022/04/14 02:30:42;;;;;;;19.30;8.95;;;14.60;94.50;;;;;;5011293;28;20033;-66
2022/04/14 02:33:07;;;;;;;18.95;9.15;;;14.50;94.50;;;;;;5023893;28;20515;-66
2022/04/14 02:35:33;;;;;;;21.23;9.15;;;14.50;94.50;;;;;;5010333;28;20108;-66
2022/04/14 02:37:59;;;;;;;17.23;9.23;;;14.50;94.60;;;;;;5026791;28;20037;-66
2022/04/14 02:40:25;;;;;;;22.60;8.85;;;14.50;94.60;;;;;;5030856;28;20041;-65
2022/04/14 02:42:56;;;;;;;16.42;9.07;;;14.40;94.60;;;;;;5020807;28;20041;-67
2022/04/14 02:45:23;;;;;;;16.77;8.07;;;14.40;94.60;;;;;;5029459;28;20041;-66
2022/04/14 02:47:48;;;;;;;17.13;9.05;;;14.40;94.60;;;;;;5022371;28;20037;-66
2022/04/14 02:50:14;;;;;;;21.38;9.68;;;14.40;94.70;;;;;;5011317;28;20034;-67
2022/04/14 02:52:40;;;;;;;17.85;9.68;;;14.30;94.70;;;;;;5029911;28;20041;-66
2022/04/14 02:55:06;;;;;;;20.90;9.32;;;14.30;94.60;;;;;;5014421;28;20060;-67
2022/04/14 02:57:32;;;;;;;17.08;8.65;;;14.30;94.60;;;;;;5018483;28;20596;-68
2022/04/14 02:59:58;;;;;;;19.42;8.57;;;14.30;94.60;;;;;;5029455;28;20132;-66
2022/04/14 03:02:24;;;;;;;17.77;7.22;;;14.30;94.80;;;;;;5029542;28;20080;-66
2022/04/14 03:04:50;;;;;;;15.40;7.88;;;14.30;94.70;;;;;;5028709;28;20022;-67
2022/04/14 03:07:16;;;;;;;14.20;8.52;;;14.20;94.70;;;;;;5029608;28;20104;-66
2022/04/14 03:09:41;;;;;;;14.40;8.48;;;14.20;94.70;;;;;;5029910;28;20033;-66
2022/04/14 03:12:08;;;;;;;16.63;8.48;;;14.20;94.70;;;;;;5032544;28;20431;-66
2022/04/14 03:14:33;;;;;;;16.63;8.75;;;14.20;94.70;;;;;;5032677;28;20060;-66
2022/04/14 03:16:59;;;;;;;23.58;8.20;;;14.20;94.60;;;;;;5032990;28;20026;-66
2022/04/14 03:19:27;;;;;;;21.02;9.50;;;14.10;94.90;;;;;;5032396;28;20037;-66
2022/04/14 03:21:53;;;;;;;18.85;9.93;;;14.10;94.60;;;;;;5032811;28;20084;-66
2022/04/14 03:24:19;;;;;;;15.00;8.88;;;14.10;94.70;;;;;;5032186;28;20025;-66
2022/04/14 03:26:44;;;;;;;20.23;8.80;;;14.10;94.70;;;;;;5033084;28;20033;-66
2022/04/14 03:29:10;;;;;;;22.20;9.43;;;14.10;94.90;;;;;;5032539;28;20056;-66
2022/04/14 03:31:39;;;;;;;14.73;8.65;;;14.00;94.60;;;;;;5032466;28;20041;-66
2022/04/14 03:34:05;;;;;;;20.25;10.02;;;14.00;94.60;;;;;;5032784;28;20045;-66
2022/04/14 03:36:36;;;;;;;22.13;11.35;;;14.00;94.60;;;;;;5032412;28;20036;-66
2022/04/14 03:39:02;;;;;;;17.65;9.15;;;13.90;94.60;;;;;;5032126;28;20033;-66
2022/04/14 03:41:28;;;;;;;22.98;9.90;;;13.90;94.60;;;;;;5032377;28;20025;-66
2022/04/14 03:43:53;;;;;;;21.30;10.55;;;13.90;94.60;;;;;;5032223;28;20124;-66
2022/04/14 03:46:19;;;;;;;18.63;10.65;;;13.80;94.60;;;;;;5031893;28;20040;-66
2022/04/14 03:48:46;;;;;;;18.42;10.45;;;13.80;94.60;;;;;;5032291;28;20080;-66
2022/04/14 03:51:15;;;;;;;24.48;11.40;;;13.80;94.70;;;;;;5027065;28;20046;-66
2022/04/14 03:53:43;;;;;;;18.55;9.80;;;13.80;94.70;;;;;;5012547;28;20404;-66
2022/04/14 03:56:10;;;;;;;23.60;12.05;;;13.80;94.80;;;;;;5021090;28;20043;-66
2022/04/14 03:58:35;;;;;;;19.77;10.60;;;13.80;94.80;;;;;;5032093;28;20056;-66
2022/04/14 04:01:01;;;;;;;22.42;11.65;;;13.80;94.80;;;;;;5012680;28;20457;-66
2022/04/14 04:03:27;;;;;;;28.65;10.82;;;13.70;94.70;;;;;;5013119;28;20058;-66
2022/04/14 04:05:53;;;;;;;19.45;11.18;;;13.70;94.70;;;;;;5021880;28;20033;-66
2022/04/14 04:08:19;;;;;;;20.23;10.10;;;13.70;94.70;;;;;;5032430;28;20464;-66
2022/04/14 04:10:46;;;;;;;16.40;8.75;;;13.70;94.70;;;;;;5033069;28;20160;-67
2022/04/14 04:13:12;;;;;;;19.45;10.13;;;13.70;94.80;;;;;;5030063;28;20165;-66
2022/04/14 04:15:38;;;;;;;24.55;10.98;;;13.60;94.70;;;;;;5012408;28;20026;-66
2022/04/14 04:18:05;;;;;;;20.13;10.13;;;13.60;94.70;;;;;;5029893;28;20041;-66
2022/04/14 04:20:31;;;;;;;18.52;9.77;;;13.60;94.70;;;;;;5031678;28;20046;-66
2022/04/14 04:22:57;;;;;;;18.10;9.82;;;13.60;94.70;;;;;;5031799;28;20472;-66
2022/04/14 04:25:25;;;;;;;15.55;7.82;;;13.60;94.70;;;;;;5021996;28;20038;-66
2022/04/14 04:27:51;;;;;;;21.70;10.30;;;13.50;94.70;;;;;;5011896;28;20056;-66
2022/04/14 04:30:17;;;;;;;20.52;10.27;;;13.50;94.60;;;;;;5013215;28;20036;-66
2022/04/14 04:32:48;;;;;;;20.30;11.02;;;13.40;94.70;;;;;;5012646;28;20042;-66
2022/04/14 04:35:14;;;;;;;21.27;10.52;;;13.40;94.70;;;;;;5012241;28;20393;-66
2022/04/14 04:37:41;;;;;;;17.48;9.02;;;13.40;94.70;;;;;;5012687;28;20014;-67
2022/04/14 04:40:07;;;;;;;21.67;9.77;;;13.30;94.70;;;;;;5024618;28;20492;-66
2022/04/14 04:42:32;;;;;;;22.63;10.45;;;13.30;94.70;;;;;;5018855;28;20025;-66
2022/04/14 04:44:59;;;;;;;21.80;10.07;;;13.30;94.70;;;;;;5018853;28;20486;-66
2022/04/14 04:47:24;;;;;;;22.00;10.07;;;13.20;94.70;;;;;;5019498;28;20025;-66
2022/04/14 04:49:50;;;;;;;20.80;10.75;;;13.20;94.70;;;;;;5030634;28;20114;-66
2022/04/14 04:52:16;;;;;;;15.30;8.43;;;13.20;94.70;;;;;;5012759;28;20044;-66
2022/04/14 04:54:42;;;;;;;20.58;12.07;;;13.10;94.70;;;;;;5012285;28;20038;-67
2022/04/14 04:57:07;;;;;;;22.05;12.23;;;13.10;94.80;;;;;;5019687;28;20800;-67
2022/04/14 04:59:34;;;;;;;20.33;10.85;;;13.10;94.80;;;;;;5017547;28;20034;-66
2022/04/14 05:02:00;;;;;;;23.52;12.32;;;13.10;94.90;;;;;;5012071;28;20497;-66
2022/04/14 05:04:25;;;;;;;18.60;11.63;;;13.10;94.80;;;;;;5013541;28;20049;-66
2022/04/14 05:06:51;;;;;;;20.55;10.43;;;13.00;94.80;;;;;;5032092;28;20036;-67
2022/04/14 05:09:17;;;;;;;27.67;12.70;;;13.10;94.80;;;;;;5031758;28;20179;-66
2022/04/14 05:11:43;;;;;;;20.02;11.10;;;13.00;94.70;;;;;;5022236;28;20018;-66
2022/04/14 05:14:09;;;;;;;23.52;11.27;;;13.00;95.00;;;;;;5017338;28;20075;-67
2022/04/14 05:16:35;;;;;;;22.92;10.85;;;13.10;94.70;;;;;;5030822;28;20041;-68
2022/04/14 05:19:01;;;;;;;24.70;11.77;;;13.00;94.70;;;;;;5027041;28;20029;-67
2022/04/14 05:21:27;;;;;;;29.10;12.27;;;13.00;94.80;;;;;;5031471;28;20655;-67
2022/04/14 05:23:53;;;;;;;23.50;12.00;;;13.00;94.80;;;;;;5026641;28;20033;-66
2022/04/14 05:26:19;;;;;;;19.27;10.63;;;13.00;94.80;;;;;;5024344;28;20388;-67
2022/04/14 05:28:44;;;;;;;27.83;11.82;;;12.90;94.80;;;;;;5013326;28;20040;-68
2022/04/14 05:31:10;;;;;;;23.60;11.45;;;13.00;94.90;;;;;;5019160;28;20029;-66
2022/04/14 05:33:36;;;;;;;23.10;9.40;;;12.90;94.80;;;;;;5017014;28;20162;-66
2022/04/14 05:36:01;;;;;;;19.20;9.52;;;12.90;94.80;;;;;;5027675;28;20079;-66
2022/04/14 05:38:27;;;;;;;21.83;10.05;;;12.80;94.80;;;;;;5027470;28;20025;-65
2022/04/14 05:40:54;;;;;;;23.83;10.75;;;12.90;94.90;;;;;;5027819;28;20884;-66
2022/04/14 05:43:23;;;;;;;22.98;12.45;;;12.80;94.90;;;;;;5027079;28;20035;-66
2022/04/14 05:45:49;;;;;;;30.58;11.38;;;12.80;95.00;;;;;;5029401;28;20034;-66
2022/04/14 05:48:16;;;;;;;25.73;13.40;;;12.80;94.90;;;;;;5030175;28;20530;-66
2022/04/14 05:50:51;;;;;;;24.75;11.10;;;12.80;95.00;;;;;;5030220;28;20032;-66
2022/04/14 05:53:17;;;;;;;26.00;12.88;;;12.80;95.10;;;;;;5029401;28;20044;-67
2022/04/14 05:55:47;;;;;;;26.80;13.48;;;12.80;95.10;;;;;;5030104;28;20108;-67
2022/04/14 05:58:13;;;;;;;26.20;12.00;;;12.80;95.10;;;;;;5028635;28;20037;-67
2022/04/14 06:00:40;;;;;;;23.30;8.88;;;12.70;95.10;;;;;;5028496;28;20037;-66
2022/04/14 06:03:05;;;;;;;22.80;12.50;;;12.70;95.10;;;;;;5029110;28;20041;-67
2022/04/14 06:05:32;;;;;;;24.15;11.85;;;12.70;95.10;;;;;;5029562;28;20032;-67
2022/04/14 06:07:58;;;;;;;25.02;12.45;;;12.70;95.10;;;;;;5026756;28;20513;-67
2022/04/14 06:10:25;;;;;;;27.60;11.57;;;12.70;95.20;;;;;;5027114;28;20113;-67
2022/04/14 06:12:51;;;;;;;26.58;11.65;;;12.80;95.30;;;;;;5026715;28;20076;-67
2022/04/14 06:15:20;;;;;;;22.85;12.77;;;12.80;95.20;;;;;;5026139;28;20025;-67
2022/04/14 06:17:46;;;;;;;26.02;11.70;;;12.80;95.20;;;;;;5026828;28;20051;-69
2022/04/14 06:20:13;;;;;;;23.52;10.55;;;12.80;95.20;;;;;;5028274;28;20029;-70
2022/04/14 06:22:40;;;;;;;22.90;8.30;;;12.80;95.20;;;;;;5028679;28;20025;-67
2022/04/14 06:25:12;;;;;;;18.75;7.78;;;12.80;95.10;;;;;;5028764;28;20053;-67
2022/04/14 06:27:46;;;;;;;23.55;9.90;;;12.70;95.10;;;;;;5028318;28;20050;-67
2022/04/14 06:30:14;;;;;;;27.60;12.35;;;12.80;95.20;;;;;;5028931;28;20112;-67
2022/04/14 06:32:40;;;;;;;21.08;10.35;;;12.70;95.30;;;;;;5029145;28;20028;-66
2022/04/14 06:35:07;;;;;;;24.60;11.80;;;12.70;95.30;;;;;;5028243;28;20578;-70
2022/04/14 06:37:36;;;;;;;17.20;8.45;;;12.70;95.40;;;;;;5027592;28;20017;-67
2022/04/14 06:40:03;;;;;;;20.83;10.90;;;12.70;95.50;;;;;;5025805;28;20095;-67
2022/04/14 06:42:29;;;;;;;12.40;7.10;;;12.70;95.50;;;;;;5026888;28;20052;-67
2022/04/14 06:44:59;;;;;;;12.07;6.93;;;12.70;95.60;;;;;;5030834;28;20051;-68
2022/04/14 06:47:26;;;;;;;13.07;6.75;;;12.70;95.90;;;;;;5027446;28;20032;-70
2022/04/14 06:49:51;;;;;;;10.30;5.95;;;12.70;95.70;;;;;;5033492;28;20041;-64
2022/04/14 06:52:17;;;;;;;9.68;5.20;;;12.70;95.90;;;;;;5025982;28;20033;-66
2022/04/14 06:54:43;;;;;;;8.98;4.18;;;12.70;96.00;;;;;;5026598;28;20038;-67
2022/04/14 06:57:09;;;;;;;6.50;3.97;;;12.60;96.20;;;;;;5031253;28;20129;-66
2022/04/14 06:59:37;;;;;;;14.77;8.25;;;12.70;96.40;;;;;;5021139;28;20142;-66
2022/04/14 07:02:03;;;;;;;9.80;3.35;;;12.60;96.60;;;;;;5020374;28;20049;-66
2022/04/14 07:04:29;;;;;;;13.60;7.15;;;12.60;96.60;;;;;;5031976;28;20083;-67
2022/04/14 07:06:54;;;;;;;7.05;4.00;;;12.60;96.70;;;;;;5017773;28;20124;-66
2022/04/14 07:09:21;;;;;;;10.95;4.65;;;12.70;96.80;;;;;;5014179;28;20042;-66
2022/04/14 07:11:47;;;;;;;6.88;2.55;;;12.70;96.90;;;;;;5014490;28;20029;-66
2022/04/14 07:14:15;;;;;;;24.17;9.10;;;12.70;96.90;;;;;;5014501;28;20096;-66
2022/04/14 07:16:44;;;;;;;17.55;8.30;;;12.70;97.00;;;;;;5016459;28;20049;-66
2022/04/14 07:19:09;;;;;;;14.52;8.05;;;12.70;97.10;;;;;;5023942;28;20046;-66
2022/04/14 07:21:35;;;;;;;8.02;5.22;;;12.80;97.00;;;;;;5031173;28;20615;-67
2022/04/14 07:24:01;;;;;;;12.90;5.95;;;12.80;97.10;;;;;;5020051;28;20045;-66
2022/04/14 07:26:26;;;;;;;11.63;6.40;;;12.80;97.20;;;;;;5034123;28;20029;-66
2022/04/14 07:28:55;;;;;;;9.93;5.57;;;12.80;97.30;;;;;;5017191;28;20032;-66
2022/04/14 07:31:20;;;;;;;18.35;7.63;;;12.90;97.30;;;;;;5024098;28;20032;-66
2022/04/14 07:33:46;;;;;;;6.43;4.38;;;12.90;97.40;;;;;;5032988;28;20049;-65
2022/04/14 07:36:18;;;;;;;10.80;5.90;;;12.90;97.40;;;;;;5020788;28;20200;-66
2022/04/14 07:38:44;;;;;;;14.50;7.00;;;12.90;97.40;;;;;;5019914;28;20037;-67
2022/04/14 07:41:09;;;;;;;15.85;8.88;;;13.00;97.50;;;;;;5033648;28;20030;-67
2022/04/14 07:43:40;;;;;;;15.57;5.47;;;13.00;97.50;;;;;;5019248;28;20042;-67
2022/04/14 07:46:06;;;;;;;12.10;6.60;;;13.10;97.50;;;;;;5011408;28;20041;-67
2022/04/14 07:48:32;;;;;;;8.57;4.22;;;13.10;97.50;;;;;;5015001;28;20030;-67
2022/04/14 07:50:59;;;;;;;7.43;4.78;;;13.10;97.50;;;;;;5033607;28;20469;-67
2022/04/14 07:53:25;;;;;;;13.00;7.22;;;13.10;97.60;;;;;;5019704;28;20038;-67
2022/04/14 07:55:51;;;;;;;25.50;11.35;;;13.20;97.80;;;;;;5032282;28;20030;-67
2022/04/14 07:58:16;;;;;;;13.10;5.70;;;13.20;97.80;;;;;;5014979;28;20085;-67
2022/04/14 08:00:42;;;;;;;15.98;7.85;;;13.20;97.90;;;;;;5012674;28;20033;-67
2022/04/14 08:03:09;;;;;;;9.02;4.15;;;13.20;97.90;;;;;;5026189;28;20405;-67
2022/04/14 08:05:40;;;;;;;12.88;6.57;;;13.20;97.90;;;;;;5012587;28;20076;-67
2022/04/14 08:08:07;;;;;;;12.80;7.45;;;13.20;97.90;;;;;;5013175;28;20029;-67
2022/04/14 08:10:33;;;;;;;6.60;4.18;;;13.30;98.00;;;;;;5013425;28;20033;-67
2022/04/14 08:13:00;;;;;;;12.25;5.75;;;13.40;98.00;;;;;;5026983;28;20048;-67
2022/04/14 08:15:27;;;;;;;11.90;6.18;;;13.40;98.10;;;;;;5013208;28;20088;-67
2022/04/14 08:17:53;;;;;;;12.00;6.45;;;13.40;98.10;;;;;;5012943;28;20122;-67
2022/04/14 08:20:18;;;;;;;10.40;5.30;;;13.40;98.10;;;;;;5025022;28;20116;-67
2022/04/14 08:22:49;;;;;;;19.08;10.55;;;13.40;98.20;;;;;;5019018;28;20030;-67
2022/04/14 08:25:18;;;;;;;9.77;4.63;;;13.40;98.20;;;;;;5012871;28;20045;-67
2022/04/14 08:27:44;;;;;;;9.23;5.57;;;13.50;98.30;;;;;;5012262;28;20037;-67
2022/04/14 08:30:10;;;;;;;8.60;4.82;;;13.50;98.30;;;;;;5012924;28;20037;-67
2022/04/14 08:32:36;;;;;;;5.57;3.05;;;13.60;98.40;;;;;;5012763;28;20042;-67
2022/04/14 08:35:03;;;;;;;10.15;6.70;;;13.60;98.50;;;;;;5012371;28;20547;-67
2022/04/14 08:37:29;;;;;;;12.30;6.55;;;13.60;98.50;;;;;;5021458;28;20029;-67
2022/04/14 08:39:56;;;;;;;7.93;4.43;;;13.70;98.60;;;;;;5019383;28;20221;-67
2022/04/14 08:42:26;;;;;;;26.38;13.50;;;13.70;98.60;;;;;;5032444;28;20033;-67
2022/04/14 08:44:59;;;;;;;23.13;8.73;;;13.70;98.70;;;;;;5028761;28;20063;-67
2022/04/14 08:47:29;;;;;;;11.05;5.50;;;13.80;98.70;;;;;;5024181;28;20033;-67
2022/04/14 08:49:56;;;;;;;15.93;5.95;;;13.80;98.60;;;;;;5013327;28;20075;-67
2022/04/14 08:52:22;;;;;;;18.13;6.70;;;13.90;98.70;;;;;;5012747;28;20034;-67
2022/04/14 08:54:54;;;;;;;7.45;4.80;;;13.90;98.80;;;;;;5013072;28;20053;-67
2022/04/14 08:57:20;;;;;;;21.70;11.95;;;14.00;98.80;;;;;;5023001;28;20030;-67
2022/04/14 08:59:46;;;;;;;17.63;8.73;;;14.00;98.80;;;;;;5028355;28;20575;-67
2022/04/14 09:02:18;;;;;;;24.98;12.93;;;14.10;98.80;;;;;;5031275;28;20156;-67
2022/04/14 09:04:45;;;;;;;24.55;13.55;;;14.10;98.90;;;;;;5018954;28;20094;-67
2022/04/14 09:07:11;;;;;;;7.50;5.07;;;14.10;98.90;;;;;;5031129;28;20040;-67
2022/04/14 09:09:37;;;;;;;18.77;6.03;;;14.20;98.80;;;;;;5030353;28;20026;-69
2022/04/14 09:12:04;;;;;;;8.73;4.97;;;14.20;98.80;;;;;;5031965;28;20374;-67
2022/04/14 09:14:34;;;;;;;9.90;4.20;;;14.30;98.80;;;;;;5032383;28;20536;-69
2022/04/14 09:17:06;;;;;;;15.00;6.30;;;14.30;98.90;;;;;;5026226;28;20042;-69
2022/04/14 09:19:34;;;;;;;16.03;7.87;;;14.40;98.90;;;;;;5024540;28;20107;-69
2022/04/14 09:22:23;;;;;;;11.68;6.28;;;14.50;99.00;;;;;;5028504;28;20025;-69
2022/04/14 09:24:57;;;;;;;8.30;4.32;;;14.50;98.90;;;;;;5017660;28;20504;-69
2022/04/14 09:27:24;;;;;;;19.08;5.72;;;14.50;98.90;;;;;;5017314;28;20098;-68
2022/04/14 09:29:50;;;;;;;11.65;5.70;;;14.50;99.00;;;;;;5012068;28;20083;-69
2022/04/14 09:32:30;;;;;;;10.90;6.25;;;14.60;99.00;;;;;;5024641;28;20499;-68
2022/04/14 09:34:57;;;;;;;7.78;4.55;;;14.70;99.20;;;;;;5030959;28;20512;-68
2022/04/14 09:37:26;;;;;;;16.80;10.18;;;14.70;99.10;;;;;;5028570;28;20116;-68
2022/04/14 09:40:02;;;;;;;13.27;6.80;;;14.70;99.10;;;;;;5019853;28;20044;-70
2022/04/14 09:42:33;;;;;;;9.25;3.95;;;14.80;99.00;;;;;;5014537;28;20374;-68
2022/04/14 09:45:21;;;;;;;8.82;4.80;;;14.80;98.90;;;;;;5025360;28;20124;-68
2022/04/14 09:47:55;;;;;;;11.93;6.72;;;14.90;98.90;;;;;;5030550;28;20060;-69
2022/04/14 09:50:43;;;;;;;12.88;7.20;;;15.00;98.80;;;;;;5029151;28;20029;-68
2022/04/14 09:53:14;;;;;;;6.65;4.55;;;15.00;98.70;;;;;;5028852;28;20041;-68
2022/04/14 09:55:51;;;;;;;7.45;4.72;;;15.10;98.70;;;;;;5031115;28;20072;-68
2022/04/14 09:58:18;;;;;;;12.52;6.32;;;15.10;98.70;;;;;;5030227;28;20140;-68
2022/04/14 10:00:49;;;;;;;21.20;12.38;;;15.20;98.70;;;;;;5030089;28;20025;-69
2022/04/14 10:03:19;;;;;;;19.27;11.05;;;15.20;98.40;;;;;;5029823;28;20041;-68
2022/04/14 10:05:47;;;;;;;7.15;3.83;;;15.30;98.20;;;;;;5029583;28;20029;-69
2022/04/14 10:08:16;;;;;;;2.80;2.17;;;15.30;98.60;;;;;;5030232;28;21330;-69
2022/04/14 10:10:43;;;;;;;13.95;7.93;;;15.40;98.70;;;;;;5029837;28;20504;-69
2022/04/14 10:13:14;;;;;;;18.40;8.35;;;15.40;98.50;;;;;;5029359;28;20088;-69
2022/04/14 10:15:52;;;;;;;12.07;5.95;;;15.50;98.40;;;;;;5030042;28;20027;-68
2022/04/14 10:18:18;;;;;;;11.38;7.88;;;15.60;98.30;;;;;;5027768;28;20396;-69
2022/04/14 10:20:45;;;;;;;6.60;3.58;;;15.70;97.90;;;;;;5035620;28;20104;-69
2022/04/14 10:23:13;;;;;;;7.15;3.88;;;15.70;98.00;;;;;;5036384;28;20026;-69
2022/04/14 10:25:39;;;;;;;7.15;3.88;;;15.80;98.10;;;;;;5036646;28;20488;-69
2022/04/14 10:28:12;;;;;;;9.75;4.75;;;15.80;98.10;;;;;;5035806;28;20025;-69
2022/04/14 10:30:40;;;;;;;16.98;9.30;;;15.80;98.20;;;;;;5033889;28;20039;-69
2022/04/14 10:33:05;;;;;;;21.10;10.60;;;15.80;98.00;;;;;;5036303;28;20041;-69
2022/04/14 10:35:32;;;;;;;19.98;11.20;;;15.90;98.10;;;;;;5035640;28;20075;-69
2022/04/14 10:38:19;;;;;;;19.77;11.02;;;16.00;97.60;;;;;;5036595;28;20057;-69
2022/04/14 10:40:58;;;;;;;20.20;9.25;;;16.10;97.40;;;;;;5033995;28;20029;-69
2022/04/14 10:43:25;;;;;;;16.35;8.35;;;16.10;97.50;;;;;;5036384;28;20037;-69
2022/04/14 10:45:56;;;;;;;16.85;9.55;;;16.20;97.00;;;;;;5036075;28;20030;-69
2022/04/14 10:48:36;;;;;;;19.70;9.93;;;16.30;96.80;;;;;;5036378;28;20029;-69
2022/04/14 10:51:13;;;;;;;23.23;9.85;;;16.40;96.90;;;;;;5019155;28;20033;-69
2022/04/14 10:54:09;;;;;;;23.23;11.38;;;16.40;96.60;;;;;;5017318;28;20042;-69
2022/04/14 10:56:41;;;;;;;18.58;7.72;;;16.50;96.80;;;;;;5014832;28;20508;-72
2022/04/14 10:59:14;;;;;;;16.90;8.55;;;16.60;96.60;;;;;;5035794;28;20021;-70
2022/04/14 11:01:52;;;;;;;19.98;9.35;;;16.60;96.40;;;;;;5032678;28;20096;-68
2022/04/14 11:04:47;;;;;;;13.70;7.13;;;16.70;96.60;;;;;;5017749;28;20032;-68
2022/04/14 11:07:23;;;;;;;15.80;9.23;;;16.70;96.70;;;;;;5028322;28;20033;-68
2022/04/14 11:09:59;;;;;;;16.75;8.45;;;16.80;96.30;;;;;;5023183;28;20072;-68
2022/04/14 11:12:45;;;;;;;10.25;5.93;;;16.80;95.80;;;;;;5037138;28;20036;-68
2022/04/14 11:15:12;;;;;;;12.95;5.72;;;16.90;96.30;;;;;;5025089;28;20054;-68
2022/04/14 11:17:53;;;;;;;9.65;5.25;;;16.90;96.40;;;;;;5032081;28;20041;-69
2022/04/14 11:20:44;;;;;;;18.25;7.95;;;16.90;96.00;;;;;;5031000;28;20485;-70
2022/04/14 11:23:24;;;;;;;15.23;7.15;;;16.90;95.90;;;;;;5034924;28;20021;-70
2022/04/14 11:25:52;;;;;;;9.05;5.05;;;17.00;96.20;;;;;;5018190;28;20033;-72
2022/04/14 11:28:22;;;;;;;14.10;5.53;;;17.00;96.00;;;;;;5035615;28;20033;-72
2022/04/14 11:30:49;;;;;;;14.30;6.15;;;17.00;96.30;;;;;;5020807;28;20043;-72
2022/04/14 11:33:22;;;;;;;10.32;4.55;;;17.10;96.00;;;;;;5030756;28;20099;-71
2022/04/14 11:35:48;;;;;;;7.70;4.63;;;17.10;95.10;;;;;;5030034;28;20053;-70
2022/04/14 11:38:53;;;;;;;10.00;4.20;;;17.10;94.60;;;;;;5027135;28;20075;-69
2022/04/14 11:41:46;;;;;;;9.73;4.00;;;17.20;95.30;;;;;;5023905;28;20812;-69
2022/04/14 11:44:17;;;;;;;4.88;2.95;;;17.30;94.20;;;;;;5027712;28;20138;-69
2022/04/14 11:46:54;;;;;;;12.70;5.47;;;17.30;95.20;;;;;;5028272;28;20037;-70
2022/04/14 11:49:22;;;;;;;13.05;4.25;;;17.30;94.80;;;;;;5032492;28;20032;-68
2022/04/14 11:51:50;;;;;;;21.85;8.48;;;17.40;95.50;;;;;;5031615;28;20041;-68
2022/04/14 11:54:30;;;;;;;15.35;7.40;;;17.40;95.70;;;;;;5032352;28;20034;-68
2022/04/14 11:57:01;;;;;;;23.25;10.23;;;17.50;96.00;;;;;;5032198;28;20041;-68
2022/04/14 11:59:46;;;;;;;15.30;6.68;;;17.50;95.50;;;;;;5029288;28;20026;-68
2022/04/14 12:02:18;;;;;;;18.98;7.43;;;17.60;94.70;;;;;;5032152;28;20405;-68
2022/04/14 12:04:43;;;;;;;13.15;6.95;;;17.60;94.90;;;;;;5031338;28;20022;-68
2022/04/14 12:07:10;;;;;;;12.30;6.07;;;17.60;94.40;;;;;;5032190;28;20060;-68
2022/04/14 12:09:40;;;;;;;13.98;5.25;;;17.70;94.60;;;;;;5031950;28;20481;-68
2022/04/14 12:12:17;;;;;;;13.55;6.50;;;17.70;94.80;;;;;;5031638;28;20053;-69
2022/04/14 12:14:52;;;;;;;11.90;6.35;;;17.80;94.60;;;;;;5019924;28;20389;-69
2022/04/14 12:17:22;;;;;;;16.58;6.43;;;17.90;94.60;;;;;;5022191;28;20101;-67
2022/04/14 12:19:59;;;;;;;14.40;6.72;;;17.80;94.60;;;;;;5012438;28;20045;-67
2022/04/14 12:22:34;;;;;;;17.67;6.90;;;17.90;95.10;;;;;;5021853;28;20108;-67
2022/04/14 12:25:03;;;;;;;21.98;8.70;;;17.90;95.10;;;;;;5033165;28;20091;-66
2022/04/14 12:27:39;;;;;;;16.52;7.55;;;18.00;94.60;;;;;;5031265;28;20056;-67
2022/04/14 12:30:14;;;;;;;17.58;7.85;;;18.00;95.40;;;;;;5032581;28;20052;-67
2022/04/14 12:32:43;;;;;;;15.20;5.00;;;18.00;95.40;;;;;;5018804;28;20113;-67
2022/04/14 12:35:10;;;;;;;15.68;6.25;;;18.00;96.00;;;;;;5032641;28;20045;-67
2022/04/14 12:37:41;;;;;;;12.57;6.95;;;18.10;95.80;;;;;;5018174;28;20030;-67
2022/04/14 12:40:13;;;;;;;15.43;6.75;;;18.00;94.80;;;;;;5020308;28;20047;-75
2022/04/14 12:42:39;;;;;;;14.98;6.35;;;18.00;95.00;;;;;;5030323;28;20495;-66